Stephen M. White — WCU6542 — position and weather

sailwx.info

Track history (hours):
 
Tides and Currents Weather Stations Pressure Air Temp Water Temp Dewpoint Dewpoint Depression Visibility Wind Speed Wind Dir Waves Ship Positions

Stephen M. White

Owner: LOS ANGELES, CITY OF, SAN PEDRO, CA. More information available from US FCC via Universal Licensing System and Coast Guard Vessel Documentation Center.

Last reported at 2018-Jun-21 04:29 UTC. Time now 2018-Jun-21 04:53 UTC.
Position N 33°43' W 118°16'.

Length 13 m; draft 1.4 m.

Type: Pilot. MMSI: 367049470.

Date/timePositionNaut miles runAvg speedWind from/ knotsBaromVisibWave heightAir tempDewpointWater temp
2018-Jun-21 04:29N 33°43' W 118°16'0 0.0
2018-Jun-21 04:01N 33°43' W 118°16'3 6.9
2018-Jun-21 03:30N 33°40' W 118°15'2 4.8
2018-Jun-21 03:00N 33°42' W 118°15'2 3.0
2018-Jun-21 02:30N 33°43' W 118°16'0 0.0
2018-Jun-21 02:00N 33°43' W 118°16'2 3.1
2018-Jun-21 01:30N 33°42' W 118°15'2 3.1
2018-Jun-21 01:00N 33°43' W 118°16'0 0.0
2018-Jun-21 00:30N 33°43' W 118°16'0 0.0
2018-Jun-20 23:59N 33°43' W 118°16'0 0.0
2018-Jun-20 23:30N 33°43' W 118°16'0 0.0
2018-Jun-20 23:00N 33°43' W 118°16'0 0.0
2018-Jun-20 22:30N 33°43' W 118°16'0 0.0
2018-Jun-20 22:00N 33°43' W 118°16'0 0.0
2018-Jun-20 21:30N 33°43' W 118°16'5 9.1
2018-Jun-20 21:01N 33°39' W 118°14'5 9.0
2018-Jun-20 20:30N 33°43' W 118°16'0 0.0
2018-Jun-20 19:57N 33°43' W 118°16'0 0.0
2018-Jun-20 19:30N 33°43' W 118°16'0 0.0
2018-Jun-20 19:00N 33°43' W 118°16'0 0.0
2018-Jun-20 18:30N 33°43' W 118°16'0 0.0
2018-Jun-20 18:00N 33°43' W 118°16'0 0.0
2018-Jun-20 17:30N 33°43' W 118°16'0 0.0
2018-Jun-20 17:00N 33°43' W 118°16'0 0.0
2018-Jun-20 16:30N 33°43' W 118°16'0 0.0
2018-Jun-20 15:58N 33°43' W 118°16'2 4.8
2018-Jun-20 15:31N 33°42' W 118°15'2 4.3
2018-Jun-20 15:00N 33°43' W 118°16'0 0.0
2018-Jun-20 14:30N 33°43' W 118°16'0 0.0
2018-Jun-20 14:00N 33°43' W 118°16'0 0.0
2018-Jun-20 13:30N 33°43' W 118°16'0 0.0
2018-Jun-20 13:00N 33°43' W 118°16'0 0.0
2018-Jun-20 12:30N 33°43' W 118°16'0 0.0
2018-Jun-20 12:00N 33°43' W 118°16'5 8.8
2018-Jun-20 11:30N 33°39' W 118°14'5 9.3
2018-Jun-20 11:00N 33°43' W 118°16'0 0.0
2018-Jun-20 10:29N 33°43' W 118°16'0 0.0
2018-Jun-20 09:57N 33°43' W 118°16'0 0.0
2018-Jun-20 09:26N 33°43' W 118°16'0 0.0
2018-Jun-20 08:59N 33°43' W 118°16'0 0.0
2018-Jun-20 08:28N 33°43' W 118°16'0 0.0
2018-Jun-20 07:58N 33°43' W 118°16'0 0.0
2018-Jun-20 07:25N 33°43' W 118°16'0 0.0
2018-Jun-20 06:35N 33°43' W 118°16'0 0.0
2018-Jun-20 06:23N 33°43' W 118°16'0 0.0
2018-Jun-20 05:59N 33°43' W 118°16'1 2.1
2018-Jun-20 05:30N 33°43' W 118°15'1 2.0
2018-Jun-20 05:00N 33°43' W 118°16'0 0.0
2018-Jun-20 04:30N 33°43' W 118°16'0 0.0
2018-Jun-20 04:00N 33°43' W 118°16'0 0.0
2018-Jun-20 03:29N 33°43' W 118°16'0 0.0
2018-Jun-20 03:00N 33°43' W 118°16'0 0.0
2018-Jun-19 21:42N 33°43' W 118°16'210.9
2018-Jun-19 21:29N 33°42' W 118°14'1 2.1
2018-Jun-19 21:00N 33°43' W 118°15'1 2.5
2018-Jun-19 20:29N 33°43' W 118°16'0 0.1
2018-Jun-19 20:00N 33°43' W 118°16'2 4.6
2018-Jun-19 19:31N 33°42' W 118°14'2 4.5
2018-Jun-19 19:00N 33°43' W 118°16'0 0.0
2018-Jun-19 18:27N 33°43' W 118°16'0 0.0
2018-Jun-19 18:00N 33°43' W 118°16'0 0.0
2018-Jun-19 17:30N 33°43' W 118°16'0 0.0
2018-Jun-19 17:00N 33°43' W 118°16'0 0.0
2018-Jun-19 16:30N 33°43' W 118°16'0 0.0
2018-Jun-19 16:00N 33°43' W 118°16'0 0.0
2018-Jun-19 15:30N 33°43' W 118°16'0 0.0
2018-Jun-19 15:00N 33°43' W 118°16'0 0.0
2018-Jun-19 14:30N 33°43' W 118°16'0 0.0
2018-Jun-19 14:00N 33°43' W 118°16'2 5.0
2018-Jun-19 13:30N 33°46' W 118°16'0 0.0
2018-Jun-19 13:00N 33°46' W 118°16'0 0.0
2018-Jun-19 12:30N 33°46' W 118°16'0 0.0
2018-Jun-19 12:00N 33°46' W 118°16'0 0.0
2018-Jun-19 11:30N 33°46' W 118°16'0 0.0
2018-Jun-19 11:00N 33°46' W 118°16'0 0.0
2018-Jun-19 10:30N 33°46' W 118°16'0 0.0
2018-Jun-19 10:00N 33°46' W 118°16'0 0.0
2018-Jun-19 09:30N 33°46' W 118°16'0 0.0
2018-Jun-19 09:00N 33°46' W 118°16'0 0.0
2018-Jun-19 08:30N 33°46' W 118°16'0 0.0
2018-Jun-19 08:00N 33°46' W 118°16'0 0.0
2018-Jun-19 07:30N 33°46' W 118°16'0 0.0
2018-Jun-19 07:00N 33°46' W 118°16'0 0.0
2018-Jun-19 06:30N 33°46' W 118°16'0 0.0
2018-Jun-19 06:00N 33°46' W 118°16'0 0.0
2018-Jun-19 05:30N 33°46' W 118°16'0 0.0
2018-Jun-19 05:00N 33°46' W 118°16'0 0.0
2018-Jun-19 04:29N 33°46' W 118°16'0 0.0
2018-Jun-19 04:00N 33°46' W 118°16'0 0.0
2018-Jun-19 03:30N 33°46' W 118°16'0 0.0
2018-Jun-19 03:00N 33°46' W 118°16'0 0.0
2018-Jun-19 02:30N 33°46' W 118°16'0 0.0
2018-Jun-19 02:00N 33°46' W 118°16'0 0.0
2018-Jun-19 01:30N 33°46' W 118°16'0 0.0
2018-Jun-19 01:00N 33°46' W 118°16'0 0.0
2018-Jun-19 00:30N 33°46' W 118°16'0 0.0
2018-Jun-19 00:00N 33°46' W 118°16'0 0.0
2018-Jun-18 23:30N 33°46' W 118°16'0 0.0
2018-Jun-18 23:00N 33°46' W 118°16'0 0.0
2018-Jun-18 22:30N 33°46' W 118°16'0 0.0
2018-Jun-18 22:00N 33°46' W 118°16'0 0.0
2018-Jun-18 21:30N 33°46' W 118°16'0 0.0
2018-Jun-18 21:00N 33°46' W 118°16'0 0.0
2018-Jun-18 20:30N 33°46' W 118°16'0 0.0
2018-Jun-18 20:00N 33°46' W 118°16'0 0.0
2018-Jun-18 19:30N 33°46' W 118°16'0 0.0
2018-Jun-18 19:00N 33°46' W 118°16'0 0.0
2018-Jun-18 18:30N 33°46' W 118°16'0 0.0
2018-Jun-18 18:00N 33°46' W 118°16'0 0.0
2018-Jun-18 17:30N 33°46' W 118°16'0 0.0
2018-Jun-18 17:00N 33°46' W 118°16'0 0.0
2018-Jun-18 16:30N 33°46' W 118°16'0 0.0
2018-Jun-18 16:00N 33°46' W 118°16'0 0.0
2018-Jun-18 15:30N 33°46' W 118°16'0 0.0
2018-Jun-18 15:00N 33°46' W 118°16'0 0.0
2018-Jun-18 14:30N 33°46' W 118°16'0 0.0
2018-Jun-18 14:00N 33°46' W 118°16'0 0.0
2018-Jun-18 13:30N 33°46' W 118°16'2 4.9
2018-Jun-18 13:00N 33°43' W 118°16'0 0.0
2018-Jun-18 12:30N 33°43' W 118°16'0 0.0
2018-Jun-18 11:58N 33°43' W 118°16'0 0.0
2018-Jun-18 11:30N 33°43' W 118°16'510.0
2018-Jun-18 11:00N 33°39' W 118°13'5 9.8
2018-Jun-18 10:30N 33°43' W 118°16'0 0.0
2018-Jun-18 10:00N 33°43' W 118°16'0 0.0
2018-Jun-18 09:30N 33°43' W 118°16'0 0.0
2018-Jun-18 09:01N 33°43' W 118°16'0 0.0
2018-Jun-18 08:28N 33°43' W 118°16'0 0.0
2018-Jun-18 07:58N 33°43' W 118°16'0 0.0
2018-Jun-18 07:30N 33°43' W 118°16'0 0.0
2018-Jun-18 06:59N 33°43' W 118°16'0 0.0
2018-Jun-18 06:30N 33°43' W 118°16'0 0.0
2018-Jun-18 05:59N 33°43' W 118°16'0 0.0
2018-Jun-18 05:29N 33°43' W 118°16'0 0.0
2018-Jun-18 04:59N 33°43' W 118°16'0 0.0
2018-Jun-18 04:23N 33°43' W 118°16'0 0.0
2018-Jun-18 04:00N 33°43' W 118°16'0 0.0
2018-Jun-18 03:31N 33°43' W 118°16'0 0.0
2018-Jun-18 03:00N 33°43' W 118°16'0 0.0
2018-Jun-18 02:30N 33°43' W 118°16'0 0.0
2018-Jun-18 02:01N 33°43' W 118°16'0 0.0
2018-Jun-18 01:30N 33°43' W 118°16'1 2.7
2018-Jun-18 01:00N 33°43' W 118°15'1 2.7
2018-Jun-18 00:31N 33°43' W 118°16'0 0.0
2018-Jun-18 00:00N 33°43' W 118°16'0 0.0
2018-Jun-17 23:30N 33°43' W 118°16'0 0.0
2018-Jun-17 23:00N 33°43' W 118°16'0 0.0
2018-Jun-17 22:30N 33°43' W 118°16'0 0.0
2018-Jun-17 21:58N 33°43' W 118°16'0 0.0
2018-Jun-17 21:30N 33°43' W 118°16'0 0.0
2018-Jun-17 21:00N 33°43' W 118°16'0 0.0
2018-Jun-17 20:30N 33°43' W 118°16'0 0.0
2018-Jun-17 20:00N 33°43' W 118°16'0 0.0
2018-Jun-17 19:30N 33°43' W 118°16'0 0.0
2018-Jun-17 19:00N 33°43' W 118°16'0 0.0
2018-Jun-17 18:30N 33°43' W 118°16'0 0.0
2018-Jun-17 18:00N 33°43' W 118°16'0 0.0
2018-Jun-17 17:30N 33°43' W 118°16'0 0.0
2018-Jun-17 17:00N 33°43' W 118°16'0 0.0
2018-Jun-17 16:29N 33°43' W 118°16'0 0.0
2018-Jun-17 16:00N 33°43' W 118°16'1 1.2
2018-Jun-17 15:30N 33°44' W 118°16'1 1.1
2018-Jun-17 14:59N 33°43' W 118°16'0 0.0
2018-Jun-17 14:24N 33°43' W 118°16'0 0.0
2018-Jun-17 13:59N 33°43' W 118°16'0 0.0
2018-Jun-17 13:30N 33°43' W 118°16'0 0.0
2018-Jun-17 13:00N 33°43' W 118°16'4 8.9
2018-Jun-17 12:30N 33°44' W 118°11'4 8.8
2018-Jun-17 12:00N 33°43' W 118°16'1 2.2
2018-Jun-17 11:31N 33°44' W 118°15'3 4.9
2018-Jun-17 11:00N 33°42' W 118°14'2 4.8
2018-Jun-17 10:30N 33°43' W 118°16'0 0.0
2018-Jun-17 10:00N 33°43' W 118°16'0 0.0
2018-Jun-17 09:30N 33°43' W 118°16'0 0.0
2018-Jun-17 08:57N 33°43' W 118°16'0 0.0
2018-Jun-17 08:30N 33°43' W 118°16'0 0.0
2018-Jun-17 08:00N 33°43' W 118°16'0 0.0
2018-Jun-17 07:29N 33°43' W 118°16'0 0.0
2018-Jun-17 07:00N 33°43' W 118°16'0 0.0
2018-Jun-17 06:29N 33°43' W 118°16'0 0.0
2018-Jun-17 06:00N 33°43' W 118°16'0 0.0
2018-Jun-17 05:30N 33°43' W 118°16'0 0.0
2018-Jun-17 04:59N 33°43' W 118°16'0 0.0
2018-Jun-17 04:30N 33°43' W 118°16'0 0.0
2018-Jun-17 04:00N 33°43' W 118°16'0 0.0
2018-Jun-17 03:30N 33°43' W 118°16'1 1.6
2018-Jun-17 03:00N 33°43' W 118°15'1 1.6
2018-Jun-17 02:30N 33°43' W 118°16'0 0.0
2018-Jun-17 02:01N 33°43' W 118°16'0 0.0
2018-Jun-17 01:30N 33°43' W 118°16'0 0.0
2018-Jun-17 01:01N 33°43' W 118°16'0 0.0
2018-Jun-17 00:30N 33°43' W 118°16'0 0.0
2018-Jun-17 00:00N 33°43' W 118°16'0 0.0
2018-Jun-16 23:30N 33°43' W 118°16'0 0.0
2018-Jun-16 23:00N 33°43' W 118°16'0 0.0
2018-Jun-16 22:27N 33°43' W 118°16'0 0.0
2018-Jun-16 21:59N 33°43' W 118°16'0 0.0
2018-Jun-16 21:30N 33°43' W 118°16'4 8.3
2018-Jun-16 21:00N 33°40' W 118°13'4 8.2
2018-Jun-16 20:30N 33°43' W 118°16'0 0.0
2018-Jun-16 20:00N 33°43' W 118°16'0 0.0
2018-Jun-16 19:30N 33°43' W 118°16'0 0.0
2018-Jun-16 19:00N 33°43' W 118°16'0 0.0
2018-Jun-16 18:29N 33°43' W 118°16'0 0.0
2018-Jun-16 18:00N 33°43' W 118°16'0 0.0
2018-Jun-16 17:30N 33°43' W 118°16'0 0.0
2018-Jun-16 16:58N 33°43' W 118°16'0 0.0
2018-Jun-16 16:29N 33°43' W 118°16'1 2.9
2018-Jun-16 16:00N 33°45' W 118°16'2 3.5
2018-Jun-16 15:31N 33°43' W 118°16'1 1.0
2018-Jun-16 15:01N 33°43' W 118°16'0 0.0
2018-Jun-16 14:30N 33°43' W 118°16'0 0.0
2018-Jun-16 14:00N 33°43' W 118°16'0 0.0
2018-Jun-16 13:30N 33°43' W 118°16'0 0.0
2018-Jun-16 13:00N 33°43' W 118°16'0 0.0
2018-Jun-16 12:30N 33°43' W 118°16'0 0.0
2018-Jun-16 12:00N 33°43' W 118°16'0 0.0
2018-Jun-16 11:31N 33°43' W 118°16'0 0.0
2018-Jun-16 11:00N 33°43' W 118°16'0 0.0
2018-Jun-16 10:30N 33°43' W 118°16'0 0.0
2018-Jun-16 10:00N 33°43' W 118°16'0 0.0
2018-Jun-16 09:30N 33°43' W 118°16'0 0.0
2018-Jun-16 09:00N 33°43' W 118°16'0 0.0
2018-Jun-16 08:30N 33°43' W 118°16'0 0.0
2018-Jun-16 08:00N 33°43' W 118°16'0 0.0
2018-Jun-16 07:31N 33°43' W 118°16'0 0.0
2018-Jun-16 06:59N 33°43' W 118°16'0 0.0
2018-Jun-16 06:30N 33°43' W 118°16'0 0.0
2018-Jun-16 06:01N 33°43' W 118°16'0 0.0
2018-Jun-16 05:30N 33°43' W 118°16'0 0.0
2018-Jun-16 05:01N 33°43' W 118°16'0 0.0
2018-Jun-16 04:31N 33°43' W 118°16'0 0.0
2018-Jun-16 03:59N 33°43' W 118°16'0 0.0
2018-Jun-16 03:29N 33°43' W 118°16'0 0.0
2018-Jun-16 03:01N 33°43' W 118°16'0 0.0
2018-Jun-16 02:31N 33°43' W 118°16'0 0.0
2018-Jun-16 02:00N 33°43' W 118°16'0 0.0
2018-Jun-16 01:28N 33°43' W 118°16'0 0.0
2018-Jun-16 01:00N 33°43' W 118°16'0 0.0
2018-Jun-16 00:30N 33°43' W 118°16'0 0.0
2018-Jun-16 00:00N 33°43' W 118°16'0 0.0
2018-Jun-15 23:31N 33°43' W 118°16'0 0.0
2018-Jun-15 23:00N 33°43' W 118°16'0 0.0
2018-Jun-15 22:31N 33°43' W 118°16'0 0.0
2018-Jun-15 21:58N 33°43' W 118°16'0 0.0
2018-Jun-15 21:31N 33°43' W 118°16'0 0.0
2018-Jun-15 21:00N 33°43' W 118°16'0 0.0
2018-Jun-15 20:29N 33°43' W 118°16'0 0.0
2018-Jun-15 20:00N 33°43' W 118°16'0 0.0
2018-Jun-15 19:30N 33°43' W 118°16'0 0.0
2018-Jun-15 19:00N 33°43' W 118°16'0 0.0
2018-Jun-15 18:31N 33°43' W 118°16'0 0.0
2018-Jun-15 18:00N 33°43' W 118°16'0 0.0
2018-Jun-15 17:31N 33°43' W 118°16'0 0.0
2018-Jun-15 17:00N 33°43' W 118°16'0 0.0
2018-Jun-15 16:31N 33°43' W 118°16'0 0.0
2018-Jun-15 16:01N 33°43' W 118°16'0 0.0
2018-Jun-15 15:31N 33°43' W 118°16'0 0.0
2018-Jun-15 14:58N 33°43' W 118°16'0 0.0
2018-Jun-15 14:31N 33°43' W 118°16'0 0.0
2018-Jun-15 14:00N 33°43' W 118°16'0 0.0
2018-Jun-15 13:30N 33°43' W 118°16'0 0.0
2018-Jun-15 12:59N 33°43' W 118°16'0 0.0
2018-Jun-15 12:27N 33°43' W 118°16'0 0.0
2018-Jun-15 11:52N 33°43' W 118°16'0 0.0
2018-Jun-15 11:31N 33°43' W 118°16'0 0.0
2018-Jun-15 11:00N 33°43' W 118°16'0 0.0
2018-Jun-15 10:22N 33°43' W 118°16'0 0.0
2018-Jun-15 09:59N 33°43' W 118°16'1 1.8
2018-Jun-15 09:31N 33°43' W 118°15'1 1.4
2018-Jun-15 08:55N 33°43' W 118°16'0 0.0
2018-Jun-15 08:20N 33°43' W 118°16'0 0.0
2018-Jun-15 07:42N 33°43' W 118°16'0 0.0
2018-Jun-15 07:26N 33°43' W 118°16'0 0.0
2018-Jun-15 07:00N 33°43' W 118°16'0 0.0
2018-Jun-15 06:24N 33°43' W 118°16'0 0.0
2018-Jun-15 06:00N 33°43' W 118°16'0 0.0
2018-Jun-15 05:27N 33°43' W 118°16'0 0.0
2018-Jun-15 05:00N 33°43' W 118°16'0 0.0
2018-Jun-15 04:24N 33°43' W 118°16'0 0.0
2018-Jun-15 03:58N 33°43' W 118°16'0 0.0
2018-Jun-15 03:28N 33°43' W 118°16'0 0.0
2018-Jun-15 02:55N 33°43' W 118°16'0 0.0
2018-Jun-15 02:30N 33°43' W 118°16'0 0.0
2018-Jun-15 02:00N 33°43' W 118°16'0 0.0
2018-Jun-15 01:30N 33°43' W 118°16'0 0.0
2018-Jun-15 01:00N 33°43' W 118°16'0 0.0
2018-Jun-15 00:30N 33°43' W 118°16'0 0.0
2018-Jun-15 00:01N 33°43' W 118°16'0 0.0
2018-Jun-14 23:30N 33°43' W 118°16'0 0.0
2018-Jun-14 23:00N 33°43' W 118°16'0 0.0
2018-Jun-14 22:27N 33°43' W 118°16'0 0.0
2018-Jun-14 22:00N 33°43' W 118°16'0 0.0
2018-Jun-14 21:30N 33°43' W 118°16'0 0.0
2018-Jun-14 21:00N 33°43' W 118°16'0 0.0
2018-Jun-14 20:30N 33°43' W 118°16'0 0.0
2018-Jun-14 20:00N 33°43' W 118°16'0 0.0
2018-Jun-14 19:30N 33°43' W 118°16'0 0.0
2018-Jun-14 19:01N 33°43' W 118°16'0 0.0
2018-Jun-14 18:30N 33°43' W 118°16'0 0.0
2018-Jun-14 18:00N 33°43' W 118°16'0 0.0
2018-Jun-14 17:30N 33°43' W 118°16'0 0.0
2018-Jun-14 17:00N 33°43' W 118°16'0 0.0
2018-Jun-14 16:30N 33°43' W 118°16'4 7.1
2018-Jun-14 16:00N 33°40' W 118°14'4 7.2
2018-Jun-14 15:31N 33°43' W 118°16'0 0.0
2018-Jun-14 15:00N 33°43' W 118°16'0 0.0
2018-Jun-14 14:30N 33°43' W 118°16'1 2.3
2018-Jun-14 14:00N 33°43' W 118°15'0 0.7
2018-Jun-14 13:30N 33°42' W 118°15'1 2.9
2018-Jun-14 13:00N 33°43' W 118°16'0 0.0
2018-Jun-14 12:30N 33°43' W 118°16'0 0.0
2018-Jun-14 12:00N 33°43' W 118°16'0 0.0
2018-Jun-14 11:29N 33°43' W 118°16'4 8.1
2018-Jun-14 11:00N 33°40' W 118°14'4 7.6
2018-Jun-14 10:29N 33°43' W 118°16'0 0.0
2018-Jun-14 09:59N 33°43' W 118°16'0 0.0
2018-Jun-14 09:30N 33°43' W 118°16'0 0.0
2018-Jun-14 09:00N 33°43' W 118°16'0 0.0
2018-Jun-14 08:28N 33°43' W 118°16'0 0.0
2018-Jun-14 07:59N 33°43' W 118°16'0 0.0
2018-Jun-14 07:30N 33°43' W 118°16'0 0.0
2018-Jun-14 07:00N 33°43' W 118°16'1 2.5
2018-Jun-14 06:30N 33°43' W 118°15'1 2.4
2018-Jun-14 05:59N 33°43' W 118°16'0 0.0
2018-Jun-14 05:30N 33°43' W 118°16'0 0.0
2018-Jun-14 05:00N 33°43' W 118°16'0 0.0
2018-Jun-14 04:30N 33°43' W 118°16'0 0.0
2018-Jun-14 04:00N 33°43' W 118°16'0 0.0
2018-Jun-14 03:30N 33°43' W 118°16'1 2.3
2018-Jun-14 03:00N 33°43' W 118°15'1 2.2
2018-Jun-14 02:30N 33°43' W 118°16'0 0.0
2018-Jun-14 02:01N 33°43' W 118°16'0 0.0
2018-Jun-14 01:30N 33°43' W 118°16'0 0.0
2018-Jun-14 01:00N 33°43' W 118°16'0 0.0
2018-Jun-14 00:30N 33°43' W 118°16'0 0.0
2018-Jun-14 00:00N 33°43' W 118°16'0 0.0
2018-Jun-13 23:30N 33°43' W 118°16'0 0.0
2018-Jun-13 23:00N 33°43' W 118°16'0 0.0
2018-Jun-13 22:28N 33°43' W 118°16'0 0.0
2018-Jun-13 22:00N 33°43' W 118°16'0 0.0
2018-Jun-13 21:30N 33°43' W 118°16'0 0.0
2018-Jun-13 21:00N 33°43' W 118°16'0 0.0
2018-Jun-13 20:30N 33°43' W 118°16'0 0.0
2018-Jun-13 20:00N 33°43' W 118°16'0 0.0
2018-Jun-13 19:30N 33°43' W 118°16'0 0.0
2018-Jun-13 19:00N 33°43' W 118°16'0 0.0
2018-Jun-13 18:30N 33°43' W 118°16'0 0.0
2018-Jun-13 17:59N 33°43' W 118°16'0 0.0
2018-Jun-13 17:28N 33°43' W 118°16'0 0.0
2018-Jun-13 17:00N 33°43' W 118°16'0 0.0
2018-Jun-13 16:30N 33°43' W 118°16'0 0.0
2018-Jun-13 16:00N 33°43' W 118°16'0 0.0
2018-Jun-13 15:31N 33°43' W 118°16'0 0.0
2018-Jun-13 15:00N 33°43' W 118°16'0 0.0
2018-Jun-13 14:30N 33°43' W 118°16'0 0.0
2018-Jun-13 14:00N 33°43' W 118°16'0 0.0
2018-Jun-13 13:30N 33°43' W 118°16'0 0.0
2018-Jun-13 13:00N 33°43' W 118°16'0 0.0
2018-Jun-13 12:30N 33°43' W 118°16'0 0.0
2018-Jun-13 12:00N 33°43' W 118°16'0 0.3
2018-Jun-13 11:31N 33°43' W 118°16'0 0.3
2018-Jun-13 10:58N 33°43' W 118°16'0 0.0
2018-Jun-13 10:28N 33°43' W 118°16'0 0.0
2018-Jun-13 10:00N 33°43' W 118°16'0 0.0
2018-Jun-13 09:28N 33°43' W 118°16'0 0.0
2018-Jun-13 08:52N 33°43' W 118°16'0 0.0
2018-Jun-13 08:30N 33°43' W 118°16'3 5.1
2018-Jun-13 08:00N 33°41' W 118°14'3 5.2
2018-Jun-13 07:30N 33°43' W 118°16'0 0.0
2018-Jun-13 07:00N 33°43' W 118°16'0 0.0
2018-Jun-13 06:29N 33°43' W 118°16'0 0.0
2018-Jun-13 06:00N 33°43' W 118°16'0 0.0
2018-Jun-13 05:30N 33°43' W 118°16'0 0.0
2018-Jun-13 05:00N 33°43' W 118°16'0 0.0
2018-Jun-13 04:30N 33°43' W 118°16'0 0.0
2018-Jun-13 04:00N 33°43' W 118°16'0 0.0
2018-Jun-13 03:30N 33°43' W 118°16'0 0.0
2018-Jun-13 03:00N 33°43' W 118°16'0 0.0
2018-Jun-13 02:30N 33°43' W 118°16'0 0.0
2018-Jun-13 02:00N 33°43' W 118°16'0 0.0
2018-Jun-13 01:30N 33°43' W 118°16'0 0.0
2018-Jun-13 01:01N 33°43' W 118°16'0 0.0
2018-Jun-13 00:30N 33°43' W 118°16'0 0.0
2018-Jun-13 00:00N 33°43' W 118°16'0 0.0
2018-Jun-12 23:30N 33°43' W 118°16'0 0.0
2018-Jun-12 23:00N 33°43' W 118°16'0 0.0
2018-Jun-12 22:30N 33°43' W 118°16'0 0.0
2018-Jun-12 22:00N 33°43' W 118°16'0 0.0
2018-Jun-12 21:30N 33°43' W 118°16'2 4.9
2018-Jun-12 21:01N 33°41' W 118°14'2 4.8
2018-Jun-12 20:30N 33°43' W 118°16'0 0.0
2018-Jun-12 20:00N 33°43' W 118°16'0 0.0
2018-Jun-12 19:29N 33°43' W 118°16'0 0.0
2018-Jun-12 19:00N 33°43' W 118°16'0 0.0
2018-Jun-12 18:30N 33°43' W 118°16'0 0.0
2018-Jun-12 18:00N 33°43' W 118°16'0 0.0
2018-Jun-12 17:30N 33°43' W 118°16'0 0.0
2018-Jun-12 17:00N 33°43' W 118°16'0 0.0
2018-Jun-12 16:30N 33°43' W 118°16'0 0.0
2018-Jun-12 16:00N 33°43' W 118°16'0 0.0
2018-Jun-12 15:30N 33°43' W 118°16'1 1.1
2018-Jun-12 15:00N 33°44' W 118°17'1 1.1
2018-Jun-12 14:30N 33°43' W 118°16'0 0.0
2018-Jun-12 14:00N 33°43' W 118°16'0 0.0
2018-Jun-12 13:30N 33°43' W 118°16'0 0.0
2018-Jun-12 13:00N 33°43' W 118°16'1 2.6
2018-Jun-12 12:30N 33°43' W 118°15'1 2.6
2018-Jun-12 12:00N 33°43' W 118°16'0 0.0
2018-Jun-12 11:30N 33°43' W 118°16'3 7.0
2018-Jun-12 11:00N 33°41' W 118°13'3 6.6
2018-Jun-12 10:29N 33°43' W 118°16'1 2.5
2018-Jun-12 10:01N 33°43' W 118°15'1 2.3
2018-Jun-12 09:29N 33°43' W 118°16'0 0.0
2018-Jun-12 09:00N 33°43' W 118°16'0 0.0
2018-Jun-12 08:30N 33°43' W 118°16'0 0.0
2018-Jun-12 08:00N 33°43' W 118°16'0 0.0
2018-Jun-12 07:22N 33°43' W 118°16'0 0.0
2018-Jun-12 06:58N 33°43' W 118°16'0 0.0
2018-Jun-12 06:29N 33°43' W 118°16'0 0.0
2018-Jun-12 06:00N 33°43' W 118°16'0 0.0
2018-Jun-12 05:29N 33°43' W 118°16'0 0.0
2018-Jun-12 05:01N 33°43' W 118°16'0 0.0
2018-Jun-12 04:31N 33°43' W 118°16'0 0.0
2018-Jun-12 04:00N 33°43' W 118°16'0 0.0
2018-Jun-12 03:30N 33°43' W 118°16'0 0.0
2018-Jun-12 03:00N 33°43' W 118°16'0 0.0
2018-Jun-12 02:30N 33°43' W 118°16'0 0.0
2018-Jun-12 02:00N 33°43' W 118°16'0 0.0
2018-Jun-12 01:30N 33°43' W 118°16'0 0.0
2018-Jun-12 01:00N 33°43' W 118°16'0 0.0
2018-Jun-12 00:31N 33°43' W 118°16'0 0.0
2018-Jun-12 00:00N 33°43' W 118°16'0 0.0
2018-Jun-11 23:30N 33°43' W 118°16'0 0.0
2018-Jun-11 23:00N 33°43' W 118°16'0 0.0
2018-Jun-11 22:30N 33°43' W 118°16'0 0.0
2018-Jun-11 22:00N 33°43' W 118°16'0 0.0
2018-Jun-11 21:30N 33°43' W 118°16'2 3.2
2018-Jun-11 21:00N 33°42' W 118°15'2 3.2
2018-Jun-11 20:30N 33°43' W 118°16'0 0.0
2018-Jun-11 20:00N 33°43' W 118°16'0 0.0
2018-Jun-11 19:30N 33°43' W 118°16'0 0.0
2018-Jun-11 19:00N 33°43' W 118°16'0 0.0
2018-Jun-11 18:30N 33°43' W 118°16'0 0.0
2018-Jun-11 17:59N 33°43' W 118°16'3 7.2
2018-Jun-11 17:30N 33°40' W 118°14'3 6.9
2018-Jun-11 17:01N 33°43' W 118°16'0 0.0
2018-Jun-11 16:30N 33°43' W 118°16'0 0.0
2018-Jun-11 16:00N 33°43' W 118°16'0 0.0
2018-Jun-11 15:31N 33°43' W 118°16'0 0.0
2018-Jun-11 15:01N 33°43' W 118°16'0 0.0
2018-Jun-11 14:31N 33°43' W 118°16'0 0.0
2018-Jun-11 14:00N 33°43' W 118°16'0 0.0
2018-Jun-11 13:31N 33°43' W 118°16'0 0.5
2018-Jun-11 13:00N 33°43' W 118°16'0 0.5
2018-Jun-11 12:30N 33°43' W 118°16'0 0.0
2018-Jun-11 12:00N 33°43' W 118°16'0 0.0
2018-Jun-11 11:30N 33°43' W 118°16'2 3.7
2018-Jun-11 11:00N 33°42' W 118°15'2 3.8
2018-Jun-11 10:30N 33°43' W 118°16'0 0.0
2018-Jun-11 09:59N 33°43' W 118°16'0 0.0
2018-Jun-11 09:28N 33°43' W 118°16'0 0.0
2018-Jun-11 09:00N 33°43' W 118°16'0 0.0
2018-Jun-11 08:30N 33°43' W 118°16'0 0.0
2018-Jun-11 08:01N 33°43' W 118°16'0 0.0
2018-Jun-11 07:30N 33°43' W 118°16'0 0.0
2018-Jun-11 07:00N 33°43' W 118°16'0 0.0
2018-Jun-11 06:30N 33°43' W 118°16'0 0.0
2018-Jun-11 06:00N 33°43' W 118°16'0 0.0
2018-Jun-11 05:30N 33°43' W 118°16'0 0.0
2018-Jun-11 05:00N 33°43' W 118°16'0 0.0
2018-Jun-11 04:30N 33°43' W 118°16'  
Track history (hours):
 
Tides and Currents Weather Stations Pressure Air Temp Water Temp Dewpoint Dewpoint Depression Visibility Wind Speed Wind Dir Waves Ship Positions

Stephen M. White

Owner: LOS ANGELES, CITY OF, SAN PEDRO, CA. More information available from US FCC via Universal Licensing System and Coast Guard Vessel Documentation Center.

Last reported at 2018-Jun-21 04:29 UTC. Time now 2018-Jun-21 04:53 UTC.
Position N 33°43' W 118°16'.

Length 13 m; draft 1.4 m.

Type: Pilot. MMSI: 367049470.

Date/timePositionNaut miles runAvg speedWind from/ knotsBaromVisibWave heightAir tempDewpointWater temp
2018-Jun-21 04:29N 33°43' W 118°16'0 0.0
2018-Jun-21 04:01N 33°43' W 118°16'3 6.9
2018-Jun-21 03:30N 33°40' W 118°15'2 4.8
2018-Jun-21 03:00N 33°42' W 118°15'2 3.0
2018-Jun-21 02:30N 33°43' W 118°16'0 0.0
2018-Jun-21 02:00N 33°43' W 118°16'2 3.1
2018-Jun-21 01:30N 33°42' W 118°15'2 3.1
2018-Jun-21 01:00N 33°43' W 118°16'0 0.0
2018-Jun-21 00:30N 33°43' W 118°16'0 0.0
2018-Jun-20 23:59N 33°43' W 118°16'0 0.0
2018-Jun-20 23:30N 33°43' W 118°16'0 0.0
2018-Jun-20 23:00N 33°43' W 118°16'0 0.0
2018-Jun-20 22:30N 33°43' W 118°16'0 0.0
2018-Jun-20 22:00N 33°43' W 118°16'0 0.0
2018-Jun-20 21:30N 33°43' W 118°16'5 9.1
2018-Jun-20 21:01N 33°39' W 118°14'5 9.0
2018-Jun-20 20:30N 33°43' W 118°16'0 0.0
2018-Jun-20 19:57N 33°43' W 118°16'0 0.0
2018-Jun-20 19:30N 33°43' W 118°16'0 0.0
2018-Jun-20 19:00N 33°43' W 118°16'0 0.0
2018-Jun-20 18:30N 33°43' W 118°16'0 0.0
2018-Jun-20 18:00N 33°43' W 118°16'0 0.0
2018-Jun-20 17:30N 33°43' W 118°16'0 0.0
2018-Jun-20 17:00N 33°43' W 118°16'0 0.0
2018-Jun-20 16:30N 33°43' W 118°16'0 0.0
2018-Jun-20 15:58N 33°43' W 118°16'2 4.8
2018-Jun-20 15:31N 33°42' W 118°15'2 4.3
2018-Jun-20 15:00N 33°43' W 118°16'0 0.0
2018-Jun-20 14:30N 33°43' W 118°16'0 0.0
2018-Jun-20 14:00N 33°43' W 118°16'0 0.0
2018-Jun-20 13:30N 33°43' W 118°16'0 0.0
2018-Jun-20 13:00N 33°43' W 118°16'0 0.0
2018-Jun-20 12:30N 33°43' W 118°16'0 0.0
2018-Jun-20 12:00N 33°43' W 118°16'5 8.8
2018-Jun-20 11:30N 33°39' W 118°14'5 9.3
2018-Jun-20 11:00N 33°43' W 118°16'0 0.0
2018-Jun-20 10:29N 33°43' W 118°16'0 0.0
2018-Jun-20 09:57N 33°43' W 118°16'0 0.0
2018-Jun-20 09:26N 33°43' W 118°16'0 0.0
2018-Jun-20 08:59N 33°43' W 118°16'0 0.0
2018-Jun-20 08:28N 33°43' W 118°16'0 0.0
2018-Jun-20 07:58N 33°43' W 118°16'0 0.0
2018-Jun-20 07:25N 33°43' W 118°16'0 0.0
2018-Jun-20 06:35N 33°43' W 118°16'0 0.0
2018-Jun-20 06:23N 33°43' W 118°16'0 0.0
2018-Jun-20 05:59N 33°43' W 118°16'1 2.1
2018-Jun-20 05:30N 33°43' W 118°15'1 2.0
2018-Jun-20 05:00N 33°43' W 118°16'0 0.0
2018-Jun-20 04:30N 33°43' W 118°16'0 0.0
2018-Jun-20 04:00N 33°43' W 118°16'0 0.0
2018-Jun-20 03:29N 33°43' W 118°16'0 0.0
2018-Jun-20 03:00N 33°43' W 118°16'0 0.0
2018-Jun-19 21:42N 33°43' W 118°16'210.9
2018-Jun-19 21:29N 33°42' W 118°14'1 2.1
2018-Jun-19 21:00N 33°43' W 118°15'1 2.5
2018-Jun-19 20:29N 33°43' W 118°16'0 0.1
2018-Jun-19 20:00N 33°43' W 118°16'2 4.6
2018-Jun-19 19:31N 33°42' W 118°14'2 4.5
2018-Jun-19 19:00N 33°43' W 118°16'0 0.0
2018-Jun-19 18:27N 33°43' W 118°16'0 0.0
2018-Jun-19 18:00N 33°43' W 118°16'0 0.0
2018-Jun-19 17:30N 33°43' W 118°16'0 0.0
2018-Jun-19 17:00N 33°43' W 118°16'0 0.0
2018-Jun-19 16:30N 33°43' W 118°16'0 0.0
2018-Jun-19 16:00N 33°43' W 118°16'0 0.0
2018-Jun-19 15:30N 33°43' W 118°16'0 0.0
2018-Jun-19 15:00N 33°43' W 118°16'0 0.0
2018-Jun-19 14:30N 33°43' W 118°16'0 0.0
2018-Jun-19 14:00N 33°43' W 118°16'2 5.0
2018-Jun-19 13:30N 33°46' W 118°16'0 0.0
2018-Jun-19 13:00N 33°46' W 118°16'0 0.0
2018-Jun-19 12:30N 33°46' W 118°16'0 0.0
2018-Jun-19 12:00N 33°46' W 118°16'0 0.0
2018-Jun-19 11:30N 33°46' W 118°16'0 0.0
2018-Jun-19 11:00N 33°46' W 118°16'0 0.0
2018-Jun-19 10:30N 33°46' W 118°16'0 0.0
2018-Jun-19 10:00N 33°46' W 118°16'0 0.0
2018-Jun-19 09:30N 33°46' W 118°16'0 0.0
2018-Jun-19 09:00N 33°46' W 118°16'0 0.0
2018-Jun-19 08:30N 33°46' W 118°16'0 0.0
2018-Jun-19 08:00N 33°46' W 118°16'0 0.0
2018-Jun-19 07:30N 33°46' W 118°16'0 0.0
2018-Jun-19 07:00N 33°46' W 118°16'0 0.0
2018-Jun-19 06:30N 33°46' W 118°16'0 0.0
2018-Jun-19 06:00N 33°46' W 118°16'0 0.0
2018-Jun-19 05:30N 33°46' W 118°16'0 0.0
2018-Jun-19 05:00N 33°46' W 118°16'0 0.0
2018-Jun-19 04:29N 33°46' W 118°16'0 0.0
2018-Jun-19 04:00N 33°46' W 118°16'0 0.0
2018-Jun-19 03:30N 33°46' W 118°16'0 0.0
2018-Jun-19 03:00N 33°46' W 118°16'0 0.0
2018-Jun-19 02:30N 33°46' W 118°16'0 0.0
2018-Jun-19 02:00N 33°46' W 118°16'0 0.0
2018-Jun-19 01:30N 33°46' W 118°16'0 0.0
2018-Jun-19 01:00N 33°46' W 118°16'0 0.0
2018-Jun-19 00:30N 33°46' W 118°16'0 0.0
2018-Jun-19 00:00N 33°46' W 118°16'0 0.0
2018-Jun-18 23:30N 33°46' W 118°16'0 0.0
2018-Jun-18 23:00N 33°46' W 118°16'0 0.0
2018-Jun-18 22:30N 33°46' W 118°16'0 0.0
2018-Jun-18 22:00N 33°46' W 118°16'0 0.0
2018-Jun-18 21:30N 33°46' W 118°16'0 0.0
2018-Jun-18 21:00N 33°46' W 118°16'0 0.0
2018-Jun-18 20:30N 33°46' W 118°16'0 0.0
2018-Jun-18 20:00N 33°46' W 118°16'0 0.0
2018-Jun-18 19:30N 33°46' W 118°16'0 0.0
2018-Jun-18 19:00N 33°46' W 118°16'0 0.0
2018-Jun-18 18:30N 33°46' W 118°16'0 0.0
2018-Jun-18 18:00N 33°46' W 118°16'0 0.0
2018-Jun-18 17:30N 33°46' W 118°16'0 0.0
2018-Jun-18 17:00N 33°46' W 118°16'0 0.0
2018-Jun-18 16:30N 33°46' W 118°16'0 0.0
2018-Jun-18 16:00N 33°46' W 118°16'0 0.0
2018-Jun-18 15:30N 33°46' W 118°16'0 0.0
2018-Jun-18 15:00N 33°46' W 118°16'0 0.0
2018-Jun-18 14:30N 33°46' W 118°16'0 0.0
2018-Jun-18 14:00N 33°46' W 118°16'0 0.0
2018-Jun-18 13:30N 33°46' W 118°16'2 4.9
2018-Jun-18 13:00N 33°43' W 118°16'0 0.0
2018-Jun-18 12:30N 33°43' W 118°16'0 0.0
2018-Jun-18 11:58N 33°43' W 118°16'0 0.0
2018-Jun-18 11:30N 33°43' W 118°16'510.0
2018-Jun-18 11:00N 33°39' W 118°13'5 9.8
2018-Jun-18 10:30N 33°43' W 118°16'0 0.0
2018-Jun-18 10:00N 33°43' W 118°16'0 0.0
2018-Jun-18 09:30N 33°43' W 118°16'0 0.0
2018-Jun-18 09:01N 33°43' W 118°16'0 0.0
2018-Jun-18 08:28N 33°43' W 118°16'0 0.0
2018-Jun-18 07:58N 33°43' W 118°16'0 0.0
2018-Jun-18 07:30N 33°43' W 118°16'0 0.0
2018-Jun-18 06:59N 33°43' W 118°16'0 0.0
2018-Jun-18 06:30N 33°43' W 118°16'0 0.0
2018-Jun-18 05:59N 33°43' W 118°16'0 0.0
2018-Jun-18 05:29N 33°43' W 118°16'0 0.0
2018-Jun-18 04:59N 33°43' W 118°16'0 0.0
2018-Jun-18 04:23N 33°43' W 118°16'0 0.0
2018-Jun-18 04:00N 33°43' W 118°16'0 0.0
2018-Jun-18 03:31N 33°43' W 118°16'0 0.0
2018-Jun-18 03:00N 33°43' W 118°16'0 0.0
2018-Jun-18 02:30N 33°43' W 118°16'0 0.0
2018-Jun-18 02:01N 33°43' W 118°16'0 0.0
2018-Jun-18 01:30N 33°43' W 118°16'1 2.7
2018-Jun-18 01:00N 33°43' W 118°15'1 2.7
2018-Jun-18 00:31N 33°43' W 118°16'0 0.0
2018-Jun-18 00:00N 33°43' W 118°16'0 0.0
2018-Jun-17 23:30N 33°43' W 118°16'0 0.0
2018-Jun-17 23:00N 33°43' W 118°16'0 0.0
2018-Jun-17 22:30N 33°43' W 118°16'0 0.0
2018-Jun-17 21:58N 33°43' W 118°16'0 0.0
2018-Jun-17 21:30N 33°43' W 118°16'0 0.0
2018-Jun-17 21:00N 33°43' W 118°16'0 0.0
2018-Jun-17 20:30N 33°43' W 118°16'0 0.0
2018-Jun-17 20:00N 33°43' W 118°16'0 0.0
2018-Jun-17 19:30N 33°43' W 118°16'0 0.0
2018-Jun-17 19:00N 33°43' W 118°16'0 0.0
2018-Jun-17 18:30N 33°43' W 118°16'0 0.0
2018-Jun-17 18:00N 33°43' W 118°16'0 0.0
2018-Jun-17 17:30N 33°43' W 118°16'0 0.0
2018-Jun-17 17:00N 33°43' W 118°16'0 0.0
2018-Jun-17 16:29N 33°43' W 118°16'0 0.0
2018-Jun-17 16:00N 33°43' W 118°16'1 1.2
2018-Jun-17 15:30N 33°44' W 118°16'1 1.1
2018-Jun-17 14:59N 33°43' W 118°16'0 0.0
2018-Jun-17 14:24N 33°43' W 118°16'0 0.0
2018-Jun-17 13:59N 33°43' W 118°16'0 0.0
2018-Jun-17 13:30N 33°43' W 118°16'0 0.0
2018-Jun-17 13:00N 33°43' W 118°16'4 8.9
2018-Jun-17 12:30N 33°44' W 118°11'4 8.8
2018-Jun-17 12:00N 33°43' W 118°16'1 2.2
2018-Jun-17 11:31N 33°44' W 118°15'3 4.9
2018-Jun-17 11:00N 33°42' W 118°14'2 4.8
2018-Jun-17 10:30N 33°43' W 118°16'0 0.0
2018-Jun-17 10:00N 33°43' W 118°16'0 0.0
2018-Jun-17 09:30N 33°43' W 118°16'0 0.0
2018-Jun-17 08:57N 33°43' W 118°16'0 0.0
2018-Jun-17 08:30N 33°43' W 118°16'0 0.0
2018-Jun-17 08:00N 33°43' W 118°16'0 0.0
2018-Jun-17 07:29N 33°43' W 118°16'0 0.0
2018-Jun-17 07:00N 33°43' W 118°16'0 0.0
2018-Jun-17 06:29N 33°43' W 118°16'0 0.0
2018-Jun-17 06:00N 33°43' W 118°16'0 0.0
2018-Jun-17 05:30N 33°43' W 118°16'0 0.0
2018-Jun-17 04:59N 33°43' W 118°16'0 0.0
2018-Jun-17 04:30N 33°43' W 118°16'0 0.0
2018-Jun-17 04:00N 33°43' W 118°16'0 0.0
2018-Jun-17 03:30N 33°43' W 118°16'1 1.6
2018-Jun-17 03:00N 33°43' W 118°15'1 1.6
2018-Jun-17 02:30N 33°43' W 118°16'0 0.0
2018-Jun-17 02:01N 33°43' W 118°16'0 0.0
2018-Jun-17 01:30N 33°43' W 118°16'0 0.0
2018-Jun-17 01:01N 33°43' W 118°16'0 0.0
2018-Jun-17 00:30N 33°43' W 118°16'0 0.0
2018-Jun-17 00:00N 33°43' W 118°16'0 0.0
2018-Jun-16 23:30N 33°43' W 118°16'0 0.0
2018-Jun-16 23:00N 33°43' W 118°16'0 0.0
2018-Jun-16 22:27N 33°43' W 118°16'0 0.0
2018-Jun-16 21:59N 33°43' W 118°16'0 0.0
2018-Jun-16 21:30N 33°43' W 118°16'4 8.3
2018-Jun-16 21:00N 33°40' W 118°13'4 8.2
2018-Jun-16 20:30N 33°43' W 118°16'0 0.0
2018-Jun-16 20:00N 33°43' W 118°16'0 0.0
2018-Jun-16 19:30N 33°43' W 118°16'0 0.0
2018-Jun-16 19:00N 33°43' W 118°16'0 0.0
2018-Jun-16 18:29N 33°43' W 118°16'0 0.0
2018-Jun-16 18:00N 33°43' W 118°16'0 0.0
2018-Jun-16 17:30N 33°43' W 118°16'0 0.0
2018-Jun-16 16:58N 33°43' W 118°16'0 0.0
2018-Jun-16 16:29N 33°43' W 118°16'1 2.9
2018-Jun-16 16:00N 33°45' W 118°16'2 3.5
2018-Jun-16 15:31N 33°43' W 118°16'1 1.0
2018-Jun-16 15:01N 33°43' W 118°16'0 0.0
2018-Jun-16 14:30N 33°43' W 118°16'0 0.0
2018-Jun-16 14:00N 33°43' W 118°16'0 0.0
2018-Jun-16 13:30N 33°43' W 118°16'0 0.0
2018-Jun-16 13:00N 33°43' W 118°16'0 0.0
2018-Jun-16 12:30N 33°43' W 118°16'0 0.0
2018-Jun-16 12:00N 33°43' W 118°16'0 0.0
2018-Jun-16 11:31N 33°43' W 118°16'0 0.0
2018-Jun-16 11:00N 33°43' W 118°16'0 0.0
2018-Jun-16 10:30N 33°43' W 118°16'0 0.0
2018-Jun-16 10:00N 33°43' W 118°16'0 0.0
2018-Jun-16 09:30N 33°43' W 118°16'0 0.0
2018-Jun-16 09:00N 33°43' W 118°16'0 0.0
2018-Jun-16 08:30N 33°43' W 118°16'0 0.0
2018-Jun-16 08:00N 33°43' W 118°16'0 0.0
2018-Jun-16 07:31N 33°43' W 118°16'0 0.0
2018-Jun-16 06:59N 33°43' W 118°16'0 0.0
2018-Jun-16 06:30N 33°43' W 118°16'0 0.0
2018-Jun-16 06:01N 33°43' W 118°16'0 0.0
2018-Jun-16 05:30N 33°43' W 118°16'0 0.0
2018-Jun-16 05:01N 33°43' W 118°16'0 0.0
2018-Jun-16 04:31N 33°43' W 118°16'0 0.0
2018-Jun-16 03:59N 33°43' W 118°16'0 0.0
2018-Jun-16 03:29N 33°43' W 118°16'0 0.0
2018-Jun-16 03:01N 33°43' W 118°16'0 0.0
2018-Jun-16 02:31N 33°43' W 118°16'0 0.0
2018-Jun-16 02:00N 33°43' W 118°16'0 0.0
2018-Jun-16 01:28N 33°43' W 118°16'0 0.0
2018-Jun-16 01:00N 33°43' W 118°16'0 0.0
2018-Jun-16 00:30N 33°43' W 118°16'0 0.0
2018-Jun-16 00:00N 33°43' W 118°16'0 0.0
2018-Jun-15 23:31N 33°43' W 118°16'0 0.0
2018-Jun-15 23:00N 33°43' W 118°16'0 0.0
2018-Jun-15 22:31N 33°43' W 118°16'0 0.0
2018-Jun-15 21:58N 33°43' W 118°16'0 0.0
2018-Jun-15 21:31N 33°43' W 118°16'0 0.0
2018-Jun-15 21:00N 33°43' W 118°16'0 0.0
2018-Jun-15 20:29N 33°43' W 118°16'0 0.0
2018-Jun-15 20:00N 33°43' W 118°16'0 0.0
2018-Jun-15 19:30N 33°43' W 118°16'0 0.0
2018-Jun-15 19:00N 33°43' W 118°16'0 0.0
2018-Jun-15 18:31N 33°43' W 118°16'0 0.0
2018-Jun-15 18:00N 33°43' W 118°16'0 0.0
2018-Jun-15 17:31N 33°43' W 118°16'0 0.0
2018-Jun-15 17:00N 33°43' W 118°16'0 0.0
2018-Jun-15 16:31N 33°43' W 118°16'0 0.0
2018-Jun-15 16:01N 33°43' W 118°16'0 0.0
2018-Jun-15 15:31N 33°43' W 118°16'0 0.0
2018-Jun-15 14:58N 33°43' W 118°16'0 0.0
2018-Jun-15 14:31N 33°43' W 118°16'0 0.0
2018-Jun-15 14:00N 33°43' W 118°16'0 0.0
2018-Jun-15 13:30N 33°43' W 118°16'0 0.0
2018-Jun-15 12:59N 33°43' W 118°16'0 0.0
2018-Jun-15 12:27N 33°43' W 118°16'0 0.0
2018-Jun-15 11:52N 33°43' W 118°16'0 0.0
2018-Jun-15 11:31N 33°43' W 118°16'0 0.0
2018-Jun-15 11:00N 33°43' W 118°16'0 0.0
2018-Jun-15 10:22N 33°43' W 118°16'0 0.0
2018-Jun-15 09:59N 33°43' W 118°16'1 1.8
2018-Jun-15 09:31N 33°43' W 118°15'1 1.4
2018-Jun-15 08:55N 33°43' W 118°16'0 0.0
2018-Jun-15 08:20N 33°43' W 118°16'0 0.0
2018-Jun-15 07:42N 33°43' W 118°16'0 0.0
2018-Jun-15 07:26N 33°43' W 118°16'0 0.0
2018-Jun-15 07:00N 33°43' W 118°16'0 0.0
2018-Jun-15 06:24N 33°43' W 118°16'0 0.0
2018-Jun-15 06:00N 33°43' W 118°16'0 0.0
2018-Jun-15 05:27N 33°43' W 118°16'0 0.0
2018-Jun-15 05:00N 33°43' W 118°16'0 0.0
2018-Jun-15 04:24N 33°43' W 118°16'0 0.0
2018-Jun-15 03:58N 33°43' W 118°16'0 0.0
2018-Jun-15 03:28N 33°43' W 118°16'0 0.0
2018-Jun-15 02:55N 33°43' W 118°16'0 0.0
2018-Jun-15 02:30N 33°43' W 118°16'0 0.0
2018-Jun-15 02:00N 33°43' W 118°16'0 0.0
2018-Jun-15 01:30N 33°43' W 118°16'0 0.0
2018-Jun-15 01:00N 33°43' W 118°16'0 0.0
2018-Jun-15 00:30N 33°43' W 118°16'0 0.0
2018-Jun-15 00:01N 33°43' W 118°16'0 0.0
2018-Jun-14 23:30N 33°43' W 118°16'0 0.0
2018-Jun-14 23:00N 33°43' W 118°16'0 0.0
2018-Jun-14 22:27N 33°43' W 118°16'0 0.0
2018-Jun-14 22:00N 33°43' W 118°16'0 0.0
2018-Jun-14 21:30N 33°43' W 118°16'0 0.0
2018-Jun-14 21:00N 33°43' W 118°16'0 0.0
2018-Jun-14 20:30N 33°43' W 118°16'0 0.0
2018-Jun-14 20:00N 33°43' W 118°16'0 0.0
2018-Jun-14 19:30N 33°43' W 118°16'0 0.0
2018-Jun-14 19:01N 33°43' W 118°16'0 0.0
2018-Jun-14 18:30N 33°43' W 118°16'0 0.0
2018-Jun-14 18:00N 33°43' W 118°16'0 0.0
2018-Jun-14 17:30N 33°43' W 118°16'0 0.0
2018-Jun-14 17:00N 33°43' W 118°16'0 0.0
2018-Jun-14 16:30N 33°43' W 118°16'4 7.1
2018-Jun-14 16:00N 33°40' W 118°14'4 7.2
2018-Jun-14 15:31N 33°43' W 118°16'0 0.0
2018-Jun-14 15:00N 33°43' W 118°16'0 0.0
2018-Jun-14 14:30N 33°43' W 118°16'1 2.3
2018-Jun-14 14:00N 33°43' W 118°15'0 0.7
2018-Jun-14 13:30N 33°42' W 118°15'1 2.9
2018-Jun-14 13:00N 33°43' W 118°16'0 0.0
2018-Jun-14 12:30N 33°43' W 118°16'0 0.0
2018-Jun-14 12:00N 33°43' W 118°16'0 0.0
2018-Jun-14 11:29N 33°43' W 118°16'4 8.1
2018-Jun-14 11:00N 33°40' W 118°14'4 7.6
2018-Jun-14 10:29N 33°43' W 118°16'0 0.0
2018-Jun-14 09:59N 33°43' W 118°16'0 0.0
2018-Jun-14 09:30N 33°43' W 118°16'0 0.0
2018-Jun-14 09:00N 33°43' W 118°16'0 0.0
2018-Jun-14 08:28N 33°43' W 118°16'0 0.0
2018-Jun-14 07:59N 33°43' W 118°16'0 0.0
2018-Jun-14 07:30N 33°43' W 118°16'0 0.0
2018-Jun-14 07:00N 33°43' W 118°16'1 2.5
2018-Jun-14 06:30N 33°43' W 118°15'1 2.4
2018-Jun-14 05:59N 33°43' W 118°16'0 0.0
2018-Jun-14 05:30N 33°43' W 118°16'0 0.0
2018-Jun-14 05:00N 33°43' W 118°16'0 0.0
2018-Jun-14 04:30N 33°43' W 118°16'0 0.0
2018-Jun-14 04:00N 33°43' W 118°16'0 0.0
2018-Jun-14 03:30N 33°43' W 118°16'1 2.3
2018-Jun-14 03:00N 33°43' W 118°15'1 2.2
2018-Jun-14 02:30N 33°43' W 118°16'0 0.0
2018-Jun-14 02:01N 33°43' W 118°16'0 0.0
2018-Jun-14 01:30N 33°43' W 118°16'0 0.0
2018-Jun-14 01:00N 33°43' W 118°16'0 0.0
2018-Jun-14 00:30N 33°43' W 118°16'0 0.0
2018-Jun-14 00:00N 33°43' W 118°16'0 0.0
2018-Jun-13 23:30N 33°43' W 118°16'0 0.0
2018-Jun-13 23:00N 33°43' W 118°16'0 0.0
2018-Jun-13 22:28N 33°43' W 118°16'0 0.0
2018-Jun-13 22:00N 33°43' W 118°16'0 0.0
2018-Jun-13 21:30N 33°43' W 118°16'0 0.0
2018-Jun-13 21:00N 33°43' W 118°16'0 0.0
2018-Jun-13 20:30N 33°43' W 118°16'0 0.0
2018-Jun-13 20:00N 33°43' W 118°16'0 0.0
2018-Jun-13 19:30N 33°43' W 118°16'0 0.0
2018-Jun-13 19:00N 33°43' W 118°16'0 0.0
2018-Jun-13 18:30N 33°43' W 118°16'0 0.0
2018-Jun-13 17:59N 33°43' W 118°16'0 0.0
2018-Jun-13 17:28N 33°43' W 118°16'0 0.0
2018-Jun-13 17:00N 33°43' W 118°16'0 0.0
2018-Jun-13 16:30N 33°43' W 118°16'0 0.0
2018-Jun-13 16:00N 33°43' W 118°16'0 0.0
2018-Jun-13 15:31N 33°43' W 118°16'0 0.0
2018-Jun-13 15:00N 33°43' W 118°16'0 0.0
2018-Jun-13 14:30N 33°43' W 118°16'0 0.0
2018-Jun-13 14:00N 33°43' W 118°16'0 0.0
2018-Jun-13 13:30N 33°43' W 118°16'0 0.0
2018-Jun-13 13:00N 33°43' W 118°16'0 0.0
2018-Jun-13 12:30N 33°43' W 118°16'0 0.0
2018-Jun-13 12:00N 33°43' W 118°16'0 0.3
2018-Jun-13 11:31N 33°43' W 118°16'0 0.3
2018-Jun-13 10:58N 33°43' W 118°16'0 0.0
2018-Jun-13 10:28N 33°43' W 118°16'0 0.0
2018-Jun-13 10:00N 33°43' W 118°16'0 0.0
2018-Jun-13 09:28N 33°43' W 118°16'0 0.0
2018-Jun-13 08:52N 33°43' W 118°16'0 0.0
2018-Jun-13 08:30N 33°43' W 118°16'3 5.1
2018-Jun-13 08:00N 33°41' W 118°14'3 5.2
2018-Jun-13 07:30N 33°43' W 118°16'0 0.0
2018-Jun-13 07:00N 33°43' W 118°16'0 0.0
2018-Jun-13 06:29N 33°43' W 118°16'0 0.0
2018-Jun-13 06:00N 33°43' W 118°16'0 0.0
2018-Jun-13 05:30N 33°43' W 118°16'0 0.0
2018-Jun-13 05:00N 33°43' W 118°16'0 0.0
2018-Jun-13 04:30N 33°43' W 118°16'0 0.0
2018-Jun-13 04:00N 33°43' W 118°16'0 0.0
2018-Jun-13 03:30N 33°43' W 118°16'0 0.0
2018-Jun-13 03:00N 33°43' W 118°16'0 0.0
2018-Jun-13 02:30N 33°43' W 118°16'0 0.0
2018-Jun-13 02:00N 33°43' W 118°16'0 0.0
2018-Jun-13 01:30N 33°43' W 118°16'0 0.0
2018-Jun-13 01:01N 33°43' W 118°16'0 0.0
2018-Jun-13 00:30N 33°43' W 118°16'0 0.0
2018-Jun-13 00:00N 33°43' W 118°16'0 0.0
2018-Jun-12 23:30N 33°43' W 118°16'0 0.0
2018-Jun-12 23:00N 33°43' W 118°16'0 0.0
2018-Jun-12 22:30N 33°43' W 118°16'0 0.0
2018-Jun-12 22:00N 33°43' W 118°16'0 0.0
2018-Jun-12 21:30N 33°43' W 118°16'2 4.9
2018-Jun-12 21:01N 33°41' W 118°14'2 4.8
2018-Jun-12 20:30N 33°43' W 118°16'0 0.0
2018-Jun-12 20:00N 33°43' W 118°16'0 0.0
2018-Jun-12 19:29N 33°43' W 118°16'0 0.0
2018-Jun-12 19:00N 33°43' W 118°16'0 0.0
2018-Jun-12 18:30N 33°43' W 118°16'0 0.0
2018-Jun-12 18:00N 33°43' W 118°16'0 0.0
2018-Jun-12 17:30N 33°43' W 118°16'0 0.0
2018-Jun-12 17:00N 33°43' W 118°16'0 0.0
2018-Jun-12 16:30N 33°43' W 118°16'0 0.0
2018-Jun-12 16:00N 33°43' W 118°16'0 0.0
2018-Jun-12 15:30N 33°43' W 118°16'1 1.1
2018-Jun-12 15:00N 33°44' W 118°17'1 1.1
2018-Jun-12 14:30N 33°43' W 118°16'0 0.0
2018-Jun-12 14:00N 33°43' W 118°16'0 0.0
2018-Jun-12 13:30N 33°43' W 118°16'0 0.0
2018-Jun-12 13:00N 33°43' W 118°16'1 2.6
2018-Jun-12 12:30N 33°43' W 118°15'1 2.6
2018-Jun-12 12:00N 33°43' W 118°16'0 0.0
2018-Jun-12 11:30N 33°43' W 118°16'3 7.0
2018-Jun-12 11:00N 33°41' W 118°13'3 6.6
2018-Jun-12 10:29N 33°43' W 118°16'1 2.5
2018-Jun-12 10:01N 33°43' W 118°15'1 2.3
2018-Jun-12 09:29N 33°43' W 118°16'0 0.0
2018-Jun-12 09:00N 33°43' W 118°16'0 0.0
2018-Jun-12 08:30N 33°43' W 118°16'0 0.0
2018-Jun-12 08:00N 33°43' W 118°16'0 0.0
2018-Jun-12 07:22N 33°43' W 118°16'0 0.0
2018-Jun-12 06:58N 33°43' W 118°16'0 0.0
2018-Jun-12 06:29N 33°43' W 118°16'0 0.0
2018-Jun-12 06:00N 33°43' W 118°16'0 0.0
2018-Jun-12 05:29N 33°43' W 118°16'0 0.0
2018-Jun-12 05:01N 33°43' W 118°16'0 0.0
2018-Jun-12 04:31N 33°43' W 118°16'0 0.0
2018-Jun-12 04:00N 33°43' W 118°16'0 0.0
2018-Jun-12 03:30N 33°43' W 118°16'0 0.0
2018-Jun-12 03:00N 33°43' W 118°16'0 0.0
2018-Jun-12 02:30N 33°43' W 118°16'0 0.0
2018-Jun-12 02:00N 33°43' W 118°16'0 0.0
2018-Jun-12 01:30N 33°43' W 118°16'0 0.0
2018-Jun-12 01:00N 33°43' W 118°16'0 0.0
2018-Jun-12 00:31N 33°43' W 118°16'0 0.0
2018-Jun-12 00:00N 33°43' W 118°16'0 0.0
2018-Jun-11 23:30N 33°43' W 118°16'0 0.0
2018-Jun-11 23:00N 33°43' W 118°16'0 0.0
2018-Jun-11 22:30N 33°43' W 118°16'0 0.0
2018-Jun-11 22:00N 33°43' W 118°16'0 0.0
2018-Jun-11 21:30N 33°43' W 118°16'2 3.2
2018-Jun-11 21:00N 33°42' W 118°15'2 3.2
2018-Jun-11 20:30N 33°43' W 118°16'0 0.0
2018-Jun-11 20:00N 33°43' W 118°16'0 0.0
2018-Jun-11 19:30N 33°43' W 118°16'0 0.0
2018-Jun-11 19:00N 33°43' W 118°16'0 0.0
2018-Jun-11 18:30N 33°43' W 118°16'0 0.0
2018-Jun-11 17:59N 33°43' W 118°16'3 7.2
2018-Jun-11 17:30N 33°40' W 118°14'3 6.9
2018-Jun-11 17:01N 33°43' W 118°16'0 0.0
2018-Jun-11 16:30N 33°43' W 118°16'0 0.0
2018-Jun-11 16:00N 33°43' W 118°16'0 0.0
2018-Jun-11 15:31N 33°43' W 118°16'0 0.0
2018-Jun-11 15:01N 33°43' W 118°16'0 0.0
2018-Jun-11 14:31N 33°43' W 118°16'0 0.0
2018-Jun-11 14:00N 33°43' W 118°16'0 0.0
2018-Jun-11 13:31N 33°43' W 118°16'0 0.5
2018-Jun-11 13:00N 33°43' W 118°16'0 0.5
2018-Jun-11 12:30N 33°43' W 118°16'0 0.0
2018-Jun-11 12:00N 33°43' W 118°16'0 0.0
2018-Jun-11 11:30N 33°43' W 118°16'2 3.7
2018-Jun-11 11:00N 33°42' W 118°15'2 3.8
2018-Jun-11 10:30N 33°43' W 118°16'0 0.0
2018-Jun-11 09:59N 33°43' W 118°16'0 0.0
2018-Jun-11 09:28N 33°43' W 118°16'0 0.0
2018-Jun-11 09:00N 33°43' W 118°16'0 0.0
2018-Jun-11 08:30N 33°43' W 118°16'0 0.0
2018-Jun-11 08:01N 33°43' W 118°16'0 0.0
2018-Jun-11 07:30N 33°43' W 118°16'0 0.0
2018-Jun-11 07:00N 33°43' W 118°16'0 0.0
2018-Jun-11 06:30N 33°43' W 118°16'0 0.0
2018-Jun-11 06:00N 33°43' W 118°16'0 0.0
2018-Jun-11 05:30N 33°43' W 118°16'0 0.0
2018-Jun-11 05:00N 33°43' W 118°16'0 0.0
2018-Jun-11 04:30N 33°43' W 118°16'  

Dump ship's entire track history